sensor_id;sensor_type;location;lat;lon;timestamp;P1;durP1;ratioP1;P2;durP2;ratioP2
82292;SDS011;71892;14.836;105.234;2023-09-19T00:00:42;7.50;;;3.10;;
82292;SDS011;71892;14.836;105.234;2023-09-19T00:03:09;7.28;;;3.30;;
82292;SDS011;71892;14.836;105.234;2023-09-19T00:05:37;5.97;;;3.30;;
82292;SDS011;71892;14.836;105.234;2023-09-19T00:08:04;7.25;;;3.05;;
82292;SDS011;71892;14.836;105.234;2023-09-19T00:10:32;6.13;;;3.95;;
82292;SDS011;71892;14.836;105.234;2023-09-19T00:13:00;7.53;;;3.80;;
82292;SDS011;71892;14.836;105.234;2023-09-19T00:15:37;6.95;;;2.97;;
82292;SDS011;71892;14.836;105.234;2023-09-19T00:18:05;6.45;;;3.10;;
82292;SDS011;71892;14.836;105.234;2023-09-19T00:20:37;6.00;;;3.60;;
82292;SDS011;71892;14.836;105.234;2023-09-19T00:23:04;6.70;;;2.38;;
82292;SDS011;71892;14.836;105.234;2023-09-19T00:25:31;7.70;;;3.13;;
82292;SDS011;71892;14.836;105.234;2023-09-19T00:27:57;6.85;;;3.17;;
82292;SDS011;71892;14.836;105.234;2023-09-19T00:30:24;8.27;;;3.10;;
82292;SDS011;71892;14.836;105.234;2023-09-19T00:32:50;7.45;;;2.97;;
82292;SDS011;71892;14.836;105.234;2023-09-19T00:35:23;5.60;;;2.10;;
82292;SDS011;71892;14.836;105.234;2023-09-19T00:37:50;4.28;;;2.10;;
82292;SDS011;71892;14.836;105.234;2023-09-19T00:40:17;5.88;;;2.55;;
82292;SDS011;71892;14.836;105.234;2023-09-19T00:42:47;3.90;;;1.98;;
82292;SDS011;71892;14.836;105.234;2023-09-19T00:45:15;9.23;;;2.17;;
82292;SDS011;71892;14.836;105.234;2023-09-19T00:47:47;5.68;;;2.33;;
82292;SDS011;71892;14.836;105.234;2023-09-19T00:50:16;4.22;;;1.67;;
82292;SDS011;71892;14.836;105.234;2023-09-19T00:52:45;4.50;;;1.65;;
82292;SDS011;71892;14.836;105.234;2023-09-19T00:55:15;4.45;;;1.90;;
82292;SDS011;71892;14.836;105.234;2023-09-19T00:57:45;4.93;;;1.88;;
82292;SDS011;71892;14.836;105.234;2023-09-19T01:00:12;5.15;;;2.10;;
82292;SDS011;71892;14.836;105.234;2023-09-19T01:02:44;4.10;;;1.88;;
82292;SDS011;71892;14.836;105.234;2023-09-19T01:05:11;5.07;;;1.48;;
82292;SDS011;71892;14.836;105.234;2023-09-19T01:07:38;4.50;;;1.90;;
82292;SDS011;71892;14.836;105.234;2023-09-19T01:10:12;5.07;;;1.83;;
82292;SDS011;71892;14.836;105.234;2023-09-19T01:15:37;4.43;;;1.98;;
82292;SDS011;71892;14.836;105.234;2023-09-19T01:18:25;4.47;;;1.50;;
82292;SDS011;71892;14.836;105.234;2023-09-19T01:31:45;3.58;;;1.67;;
82292;SDS011;71892;14.836;105.234;2023-09-19T01:34:12;3.65;;;1.50;;
82292;SDS011;71892;14.836;105.234;2023-09-19T01:36:39;4.53;;;1.60;;
82292;SDS011;71892;14.836;105.234;2023-09-19T01:39:09;3.10;;;1.58;;
82292;SDS011;71892;14.836;105.234;2023-09-19T01:50:34;5.97;;;1.90;;
82292;SDS011;71892;14.836;105.234;2023-09-19T01:53:24;3.97;;;1.90;;
82292;SDS011;71892;14.836;105.234;2023-09-19T01:55:56;2.47;;;1.17;;
82292;SDS011;71892;14.836;105.234;2023-09-19T01:58:34;5.15;;;1.77;;
82292;SDS011;71892;14.836;105.234;2023-09-19T02:01:16;3.45;;;1.50;;
82292;SDS011;71892;14.836;105.234;2023-09-19T02:03:46;4.13;;;1.80;;
82292;SDS011;71892;14.836;105.234;2023-09-19T02:06:17;4.18;;;1.85;;
82292;SDS011;71892;14.836;105.234;2023-09-19T02:08:47;3.67;;;1.42;;
82292;SDS011;71892;14.836;105.234;2023-09-19T02:11:14;5.45;;;1.55;;
82292;SDS011;71892;14.836;105.234;2023-09-19T02:13:41;3.33;;;1.33;;
82292;SDS011;71892;14.836;105.234;2023-09-19T02:16:07;3.20;;;1.40;;
82292;SDS011;71892;14.836;105.234;2023-09-19T02:18:36;2.90;;;1.10;;
82292;SDS011;71892;14.836;105.234;2023-09-19T02:21:02;4.18;;;1.60;;
82292;SDS011;71892;14.836;105.234;2023-09-19T02:23:29;3.60;;;1.33;;
82292;SDS011;71892;14.836;105.234;2023-09-19T02:25:56;2.83;;;1.40;;
82292;SDS011;71892;14.836;105.234;2023-09-19T02:28:29;4.10;;;1.40;;
82292;SDS011;71892;14.836;105.234;2023-09-19T02:30:57;5.68;;;1.63;;
82292;SDS011;71892;14.836;105.234;2023-09-19T02:33:24;4.90;;;1.50;;
82292;SDS011;71892;14.836;105.234;2023-09-19T02:35:54;3.65;;;1.67;;
82292;SDS011;71892;14.836;105.234;2023-09-19T02:38:24;5.15;;;2.10;;
82292;SDS011;71892;14.836;105.234;2023-09-19T02:40:52;5.00;;;2.30;;
82292;SDS011;71892;14.836;105.234;2023-09-19T02:43:20;3.13;;;1.50;;
82292;SDS011;71892;14.836;105.234;2023-09-19T02:45:47;3.65;;;1.63;;
82292;SDS011;71892;14.836;105.234;2023-09-19T02:48:22;4.85;;;1.77;;
82292;SDS011;71892;14.836;105.234;2023-09-19T02:50:50;3.38;;;1.80;;
82292;SDS011;71892;14.836;105.234;2023-09-19T02:53:17;4.03;;;1.98;;
82292;SDS011;71892;14.836;105.234;2023-09-19T02:55:44;3.35;;;1.38;;
82292;SDS011;71892;14.836;105.234;2023-09-19T02:58:12;4.30;;;1.50;;
82292;SDS011;71892;14.836;105.234;2023-09-19T03:00:39;4.53;;;1.92;;
82292;SDS011;71892;14.836;105.234;2023-09-19T03:03:07;3.25;;;1.70;;
82292;SDS011;71892;14.836;105.234;2023-09-19T03:05:34;3.13;;;1.65;;
82292;SDS011;71892;14.836;105.234;2023-09-19T03:08:01;4.13;;;1.88;;
82292;SDS011;71892;14.836;105.234;2023-09-19T03:10:28;3.88;;;1.40;;
82292;SDS011;71892;14.836;105.234;2023-09-19T03:12:55;4.28;;;1.58;;
82292;SDS011;71892;14.836;105.234;2023-09-19T03:15:22;2.90;;;1.30;;
82292;SDS011;71892;14.836;105.234;2023-09-19T03:17:49;3.58;;;1.48;;
82292;SDS011;71892;14.836;105.234;2023-09-19T03:20:17;3.38;;;1.60;;
82292;SDS011;71892;14.836;105.234;2023-09-19T03:22:44;3.30;;;1.40;;
82292;SDS011;71892;14.836;105.234;2023-09-19T03:25:11;5.95;;;1.30;;
82292;SDS011;71892;14.836;105.234;2023-09-19T03:27:38;3.15;;;1.38;;
82292;SDS011;71892;14.836;105.234;2023-09-19T03:30:05;3.42;;;1.48;;
82292;SDS011;71892;14.836;105.234;2023-09-19T03:32:43;3.72;;;1.40;;
82292;SDS011;71892;14.836;105.234;2023-09-19T03:35:11;3.97;;;1.30;;
82292;SDS011;71892;14.836;105.234;2023-09-19T03:37:40;3.08;;;1.38;;
82292;SDS011;71892;14.836;105.234;2023-09-19T03:40:07;3.20;;;1.10;;
82292;SDS011;71892;14.836;105.234;2023-09-19T03:42:38;2.58;;;1.20;;
82292;SDS011;71892;14.836;105.234;2023-09-19T03:45:08;2.40;;;1.30;;
82292;SDS011;71892;14.836;105.234;2023-09-19T03:47:38;2.92;;;1.27;;
82292;SDS011;71892;14.836;105.234;2023-09-19T03:50:06;3.47;;;1.58;;
82292;SDS011;71892;14.836;105.234;2023-09-19T03:52:33;6.15;;;1.40;;
82292;SDS011;71892;14.836;105.234;2023-09-19T03:55:00;4.35;;;1.80;;
82292;SDS011;71892;14.836;105.234;2023-09-19T03:57:28;2.92;;;1.20;;
82292;SDS011;71892;14.836;105.234;2023-09-19T03:59:54;2.78;;;1.40;;
82292;SDS011;71892;14.836;105.234;2023-09-19T04:02:21;7.18;;;1.88;;
82292;SDS011;71892;14.836;105.234;2023-09-19T04:04:48;6.90;;;2.95;;
82292;SDS011;71892;14.836;105.234;2023-09-19T04:07:15;5.30;;;2.15;;
82292;SDS011;71892;14.836;105.234;2023-09-19T04:09:41;4.03;;;1.92;;
82292;SDS011;71892;14.836;105.234;2023-09-19T04:12:08;8.18;;;2.22;;
82292;SDS011;71892;14.836;105.234;2023-09-19T04:14:34;10.48;;;2.60;;
82292;SDS011;71892;14.836;105.234;2023-09-19T04:17:00;4.15;;;1.70;;
82292;SDS011;71892;14.836;105.234;2023-09-19T04:19:26;3.50;;;1.50;;
82292;SDS011;71892;14.836;105.234;2023-09-19T04:21:53;5.70;;;1.65;;
82292;SDS011;71892;14.836;105.234;2023-09-19T04:24:19;3.92;;;1.58;;
82292;SDS011;71892;14.836;105.234;2023-09-19T04:26:45;7.55;;;2.22;;
82292;SDS011;71892;14.836;105.234;2023-09-19T04:29:12;7.65;;;3.13;;
82292;SDS011;71892;14.836;105.234;2023-09-19T04:31:39;5.70;;;1.70;;
82292;SDS011;71892;14.836;105.234;2023-09-19T04:34:08;6.07;;;1.60;;
82292;SDS011;71892;14.836;105.234;2023-09-19T04:36:35;4.25;;;1.92;;
82292;SDS011;71892;14.836;105.234;2023-09-19T04:39:05;3.00;;;1.48;;
82292;SDS011;71892;14.836;105.234;2023-09-19T04:41:32;6.53;;;1.92;;
82292;SDS011;71892;14.836;105.234;2023-09-19T04:43:59;3.05;;;1.30;;
82292;SDS011;71892;14.836;105.234;2023-09-19T04:46:26;3.22;;;1.10;;
82292;SDS011;71892;14.836;105.234;2023-09-19T04:48:52;3.97;;;1.60;;
82292;SDS011;71892;14.836;105.234;2023-09-19T04:51:19;3.30;;;1.20;;
82292;SDS011;71892;14.836;105.234;2023-09-19T04:53:46;2.55;;;1.10;;
82292;SDS011;71892;14.836;105.234;2023-09-19T04:56:13;3.25;;;1.35;;
82292;SDS011;71892;14.836;105.234;2023-09-19T04:58:40;4.15;;;1.00;;
82292;SDS011;71892;14.836;105.234;2023-09-19T05:01:06;6.82;;;1.17;;
82292;SDS011;71892;14.836;105.234;2023-09-19T05:03:37;2.67;;;1.20;;
82292;SDS011;71892;14.836;105.234;2023-09-19T05:06:03;5.55;;;1.50;;
82292;SDS011;71892;14.836;105.234;2023-09-19T05:08:30;2.88;;;1.30;;
82292;SDS011;71892;14.836;105.234;2023-09-19T05:10:57;2.97;;;1.40;;
82292;SDS011;71892;14.836;105.234;2023-09-19T05:13:23;3.85;;;1.27;;
82292;SDS011;71892;14.836;105.234;2023-09-19T05:15:49;2.70;;;1.30;;
82292;SDS011;71892;14.836;105.234;2023-09-19T05:18:16;6.65;;;1.90;;
82292;SDS011;71892;14.836;105.234;2023-09-19T05:20:42;14.43;;;6.75;;
82292;SDS011;71892;14.836;105.234;2023-09-19T05:23:09;6.80;;;2.40;;
82292;SDS011;71892;14.836;105.234;2023-09-19T05:25:39;4.05;;;1.20;;
82292;SDS011;71892;14.836;105.234;2023-09-19T05:28:06;3.85;;;1.40;;
82292;SDS011;71892;14.836;105.234;2023-09-19T05:30:34;4.97;;;1.88;;
82292;SDS011;71892;14.836;105.234;2023-09-19T05:33:02;5.35;;;2.13;;
82292;SDS011;71892;14.836;105.234;2023-09-19T05:35:29;5.78;;;2.40;;
82292;SDS011;71892;14.836;105.234;2023-09-19T05:37:56;3.92;;;1.60;;
82292;SDS011;71892;14.836;105.234;2023-09-19T05:40:24;2.75;;;1.25;;
82292;SDS011;71892;14.836;105.234;2023-09-19T05:42:50;3.22;;;1.10;;
82292;SDS011;71892;14.836;105.234;2023-09-19T05:45:17;2.47;;;1.27;;
82292;SDS011;71892;14.836;105.234;2023-09-19T05:47:50;2.67;;;1.20;;
82292;SDS011;71892;14.836;105.234;2023-09-19T05:50:21;6.63;;;1.70;;
82292;SDS011;71892;14.836;105.234;2023-09-19T05:55:19;5.38;;;1.77;;
82292;SDS011;71892;14.836;105.234;2023-09-19T05:57:52;3.60;;;1.50;;
82292;SDS011;71892;14.836;105.234;2023-09-19T06:00:19;6.00;;;1.83;;
82292;SDS011;71892;14.836;105.234;2023-09-19T06:02:53;3.90;;;1.40;;
82292;SDS011;71892;14.836;105.234;2023-09-19T06:05:21;3.03;;;1.40;;
82292;SDS011;71892;14.836;105.234;2023-09-19T06:07:47;3.75;;;1.50;;
82292;SDS011;71892;14.836;105.234;2023-09-19T06:10:14;2.33;;;1.15;;
82292;SDS011;71892;14.836;105.234;2023-09-19T06:12:41;4.30;;;1.50;;
82292;SDS011;71892;14.836;105.234;2023-09-19T06:15:14;3.03;;;1.27;;
82292;SDS011;71892;14.836;105.234;2023-09-19T06:17:47;5.07;;;1.35;;
82292;SDS011;71892;14.836;105.234;2023-09-19T06:20:20;2.40;;;1.00;;
82292;SDS011;71892;14.836;105.234;2023-09-19T06:22:48;2.83;;;1.00;;
82292;SDS011;71892;14.836;105.234;2023-09-19T06:25:16;3.22;;;1.10;;
82292;SDS011;71892;14.836;105.234;2023-09-19T06:27:46;2.55;;;1.10;;
82292;SDS011;71892;14.836;105.234;2023-09-19T06:30:13;3.47;;;1.23;;
82292;SDS011;71892;14.836;105.234;2023-09-19T06:32:42;4.32;;;1.30;;
82292;SDS011;71892;14.836;105.234;2023-09-19T06:35:13;3.85;;;1.80;;
82292;SDS011;71892;14.836;105.234;2023-09-19T06:37:41;6.97;;;1.17;;
82292;SDS011;71892;14.836;105.234;2023-09-19T06:40:11;2.90;;;1.20;;
82292;SDS011;71892;14.836;105.234;2023-09-19T06:42:46;2.83;;;1.20;;
82292;SDS011;71892;14.836;105.234;2023-09-19T06:45:15;3.00;;;1.30;;
82292;SDS011;71892;14.836;105.234;2023-09-19T06:47:45;3.50;;;1.15;;
82292;SDS011;71892;14.836;105.234;2023-09-19T06:50:14;3.30;;;1.23;;
82292;SDS011;71892;14.836;105.234;2023-09-19T06:52:44;2.60;;;1.08;;
82292;SDS011;71892;14.836;105.234;2023-09-19T06:55:12;2.40;;;1.10;;
82292;SDS011;71892;14.836;105.234;2023-09-19T06:57:39;2.58;;;0.95;;
82292;SDS011;71892;14.836;105.234;2023-09-19T07:00:11;3.00;;;1.10;;
82292;SDS011;71892;14.836;105.234;2023-09-19T07:03:05;2.58;;;1.30;;
82292;SDS011;71892;14.836;105.234;2023-09-19T07:05:33;4.28;;;1.25;;
82292;SDS011;71892;14.836;105.234;2023-09-19T07:08:04;3.88;;;1.20;;
82292;SDS011;71892;14.836;105.234;2023-09-19T07:10:32;3.55;;;1.00;;
82292;SDS011;71892;14.836;105.234;2023-09-19T07:13:03;3.10;;;1.10;;
82292;SDS011;71892;14.836;105.234;2023-09-19T07:18:05;4.60;;;1.55;;
82292;SDS011;71892;14.836;105.234;2023-09-19T07:20:34;2.67;;;1.20;;
82292;SDS011;71892;14.836;105.234;2023-09-19T07:23:01;2.13;;;0.90;;
82292;SDS011;71892;14.836;105.234;2023-09-19T07:25:27;2.70;;;1.23;;
82292;SDS011;71892;14.836;105.234;2023-09-19T07:27:57;3.88;;;1.75;;
82292;SDS011;71892;14.836;105.234;2023-09-19T07:30:25;3.17;;;1.40;;
82292;SDS011;71892;14.836;105.234;2023-09-19T07:32:52;2.85;;;1.10;;
82292;SDS011;71892;14.836;105.234;2023-09-19T07:35:18;3.13;;;1.00;;
82292;SDS011;71892;14.836;105.234;2023-09-19T07:37:48;3.88;;;0.88;;
82292;SDS011;71892;14.836;105.234;2023-09-19T07:40:16;2.78;;;1.15;;
82292;SDS011;71892;14.836;105.234;2023-09-19T07:42:43;2.38;;;1.08;;
82292;SDS011;71892;14.836;105.234;2023-09-19T07:45:12;2.45;;;1.10;;
82292;SDS011;71892;14.836;105.234;2023-09-19T07:47:47;2.60;;;1.10;;
82292;SDS011;71892;14.836;105.234;2023-09-19T07:50:16;5.43;;;1.30;;
82292;SDS011;71892;14.836;105.234;2023-09-19T07:52:46;2.78;;;0.98;;
82292;SDS011;71892;14.836;105.234;2023-09-19T07:55:13;14.70;;;9.05;;
82292;SDS011;71892;14.836;105.234;2023-09-19T07:57:43;2.70;;;1.20;;
82292;SDS011;71892;14.836;105.234;2023-09-19T08:00:09;2.25;;;1.00;;
82292;SDS011;71892;14.836;105.234;2023-09-19T08:02:37;2.28;;;0.90;;
82292;SDS011;71892;14.836;105.234;2023-09-19T08:05:03;3.33;;;0.88;;
82292;SDS011;71892;14.836;105.234;2023-09-19T08:07:40;2.75;;;1.20;;
82292;SDS011;71892;14.836;105.234;2023-09-19T08:10:08;4.10;;;1.15;;
82292;SDS011;71892;14.836;105.234;2023-09-19T08:12:45;3.47;;;1.25;;
82292;SDS011;71892;14.836;105.234;2023-09-19T08:17:40;11.13;;;2.95;;
82292;SDS011;71892;14.836;105.234;2023-09-19T08:20:07;2.65;;;1.27;;
82292;SDS011;71892;14.836;105.234;2023-09-19T08:22:42;3.72;;;1.40;;
82292;SDS011;71892;14.836;105.234;2023-09-19T08:25:11;7.00;;;2.60;;
82292;SDS011;71892;14.836;105.234;2023-09-19T08:27:38;11.68;;;7.15;;
82292;SDS011;71892;14.836;105.234;2023-09-19T08:30:04;5.88;;;1.38;;
82292;SDS011;71892;14.836;105.234;2023-09-19T08:32:32;5.38;;;1.23;;
82292;SDS011;71892;14.836;105.234;2023-09-19T08:34:58;4.43;;;2.42;;
82292;SDS011;71892;14.836;105.234;2023-09-19T08:37:24;3.33;;;1.25;;
82292;SDS011;71892;14.836;105.234;2023-09-19T08:39:51;3.63;;;1.20;;
82292;SDS011;71892;14.836;105.234;2023-09-19T08:42:17;3.88;;;2.30;;
82292;SDS011;71892;14.836;105.234;2023-09-19T08:44:46;3.63;;;1.40;;
82292;SDS011;71892;14.836;105.234;2023-09-19T08:47:15;4.10;;;1.10;;
82292;SDS011;71892;14.836;105.234;2023-09-19T08:49:55;3.80;;;1.35;;
82292;SDS011;71892;14.836;105.234;2023-09-19T08:52:43;4.60;;;1.92;;
82292;SDS011;71892;14.836;105.234;2023-09-19T08:55:13;4.13;;;1.70;;
82292;SDS011;71892;14.836;105.234;2023-09-19T08:57:46;5.03;;;1.83;;
82292;SDS011;71892;14.836;105.234;2023-09-19T09:00:15;4.13;;;1.25;;
82292;SDS011;71892;14.836;105.234;2023-09-19T09:02:46;3.17;;;1.40;;
82292;SDS011;71892;14.836;105.234;2023-09-19T09:05:14;2.92;;;1.38;;
82292;SDS011;71892;14.836;105.234;2023-09-19T09:07:49;2.20;;;1.17;;
82292;SDS011;71892;14.836;105.234;2023-09-19T09:10:20;3.47;;;1.10;;
82292;SDS011;71892;14.836;105.234;2023-09-19T09:12:52;4.03;;;1.50;;
82292;SDS011;71892;14.836;105.234;2023-09-19T09:15:21;28.00;;;3.75;;
82292;SDS011;71892;14.836;105.234;2023-09-19T09:17:49;3.10;;;1.50;;
82292;SDS011;71892;14.836;105.234;2023-09-19T09:20:19;5.45;;;2.25;;
82292;SDS011;71892;14.836;105.234;2023-09-19T09:22:55;2.75;;;1.15;;
82292;SDS011;71892;14.836;105.234;2023-09-19T09:25:47;2.53;;;0.98;;
82292;SDS011;71892;14.836;105.234;2023-09-19T09:28:25;4.20;;;1.40;;
82292;SDS011;71892;14.836;105.234;2023-09-19T09:30:53;2.22;;;1.08;;
82292;SDS011;71892;14.836;105.234;2023-09-19T09:33:20;9.30;;;1.58;;
82292;SDS011;71892;14.836;105.234;2023-09-19T09:38:22;3.97;;;1.17;;
82292;SDS011;71892;14.836;105.234;2023-09-19T09:40:59;9.80;;;1.60;;
82292;SDS011;71892;14.836;105.234;2023-09-19T09:43:35;3.90;;;1.02;;
82292;SDS011;71892;14.836;105.234;2023-09-19T09:46:06;2.92;;;1.35;;
82292;SDS011;71892;14.836;105.234;2023-09-19T09:51:41;10.40;;;1.65;;
82292;SDS011;71892;14.836;105.234;2023-09-19T09:54:23;3.30;;;1.10;;
82292;SDS011;71892;14.836;105.234;2023-09-19T09:59:20;2.97;;;1.30;;
82292;SDS011;71892;14.836;105.234;2023-09-19T10:01:49;8.05;;;1.20;;
82292;SDS011;71892;14.836;105.234;2023-09-19T10:04:29;7.18;;;1.48;;
82292;SDS011;71892;14.836;105.234;2023-09-19T10:07:01;3.38;;;1.23;;
82292;SDS011;71892;14.836;105.234;2023-09-19T10:12:12;5.90;;;3.08;;
82292;SDS011;71892;14.836;105.234;2023-09-19T10:14:41;6.38;;;2.30;;
82292;SDS011;71892;14.836;105.234;2023-09-19T10:17:12;4.88;;;2.28;;
82292;SDS011;71892;14.836;105.234;2023-09-19T10:19:56;5.10;;;2.17;;
82292;SDS011;71892;14.836;105.234;2023-09-19T10:22:23;6.18;;;1.90;;
82292;SDS011;71892;14.836;105.234;2023-09-19T10:24:53;5.00;;;1.90;;
82292;SDS011;71892;14.836;105.234;2023-09-19T10:29:50;4.50;;;1.90;;
82292;SDS011;71892;14.836;105.234;2023-09-19T10:32:21;3.95;;;1.42;;
82292;SDS011;71892;14.836;105.234;2023-09-19T10:34:49;4.20;;;1.30;;
82292;SDS011;71892;14.836;105.234;2023-09-19T10:37:15;4.90;;;1.30;;
82292;SDS011;71892;14.836;105.234;2023-09-19T10:39:45;4.05;;;1.63;;
82292;SDS011;71892;14.836;105.234;2023-09-19T10:42:14;11.43;;;2.60;;
82292;SDS011;71892;14.836;105.234;2023-09-19T10:44:45;4.97;;;1.90;;
82292;SDS011;71892;14.836;105.234;2023-09-19T10:47:15;4.68;;;2.03;;
82292;SDS011;71892;14.836;105.234;2023-09-19T10:49:44;5.45;;;1.85;;
82292;SDS011;71892;14.836;105.234;2023-09-19T10:52:15;11.50;;;3.30;;
82292;SDS011;71892;14.836;105.234;2023-09-19T10:54:49;25.77;;;13.05;;
82292;SDS011;71892;14.836;105.234;2023-09-19T10:57:23;16.55;;;8.15;;
82292;SDS011;71892;14.836;105.234;2023-09-19T11:06:17;12.90;;;5.80;;
82292;SDS011;71892;14.836;105.234;2023-09-19T11:11:48;6.13;;;3.38;;
82292;SDS011;71892;14.836;105.234;2023-09-19T11:30:47;51.30;;;24.08;;
82292;SDS011;71892;14.836;105.234;2023-09-19T11:33:23;36.22;;;21.48;;
82292;SDS011;71892;14.836;105.234;2023-09-19T11:36:09;37.95;;;21.83;;
82292;SDS011;71892;14.836;105.234;2023-09-19T11:43:54;59.17;;;33.10;;
82292;SDS011;71892;14.836;105.234;2023-09-19T11:49:29;182.07;;;110.47;;
82292;SDS011;71892;14.836;105.234;2023-09-19T11:51:58;120.53;;;64.15;;
82292;SDS011;71892;14.836;105.234;2023-09-19T11:54:34;115.32;;;68.85;;
82292;SDS011;71892;14.836;105.234;2023-09-19T11:57:05;76.70;;;44.28;;
82292;SDS011;71892;14.836;105.234;2023-09-19T11:59:33;43.92;;;29.52;;
82292;SDS011;71892;14.836;105.234;2023-09-19T12:02:04;30.88;;;19.27;;
82292;SDS011;71892;14.836;105.234;2023-09-19T12:07:11;74.25;;;46.63;;
82292;SDS011;71892;14.836;105.234;2023-09-19T12:09:48;16.05;;;9.98;;
82292;SDS011;71892;14.836;105.234;2023-09-19T12:12:28;21.15;;;14.40;;
82292;SDS011;71892;14.836;105.234;2023-09-19T12:14:58;18.60;;;13.10;;
82292;SDS011;71892;14.836;105.234;2023-09-19T12:17:37;21.15;;;12.57;;
82292;SDS011;71892;14.836;105.234;2023-09-19T12:20:06;19.83;;;13.00;;
82292;SDS011;71892;14.836;105.234;2023-09-19T12:22:43;19.48;;;11.93;;
82292;SDS011;71892;14.836;105.234;2023-09-19T12:25:10;21.77;;;14.50;;
82292;SDS011;71892;14.836;105.234;2023-09-19T12:27:44;23.60;;;14.18;;
82292;SDS011;71892;14.836;105.234;2023-09-19T12:30:26;33.03;;;19.15;;
82292;SDS011;71892;14.836;105.234;2023-09-19T12:32:58;22.95;;;15.30;;
82292;SDS011;71892;14.836;105.234;2023-09-19T12:35:28;22.50;;;11.75;;
82292;SDS011;71892;14.836;105.234;2023-09-19T12:37:55;16.02;;;9.82;;
82292;SDS011;71892;14.836;105.234;2023-09-19T12:40:22;18.38;;;10.30;;
82292;SDS011;71892;14.836;105.234;2023-09-19T12:42:53;17.60;;;10.65;;
82292;SDS011;71892;14.836;105.234;2023-09-19T12:45:30;17.58;;;9.35;;
82292;SDS011;71892;14.836;105.234;2023-09-19T12:53:39;21.45;;;11.15;;
82292;SDS011;71892;14.836;105.234;2023-09-19T12:56:07;19.92;;;10.55;;
82292;SDS011;71892;14.836;105.234;2023-09-19T12:58:56;17.77;;;10.18;;
82292;SDS011;71892;14.836;105.234;2023-09-19T13:01:24;19.02;;;11.48;;
82292;SDS011;71892;14.836;105.234;2023-09-19T13:04:10;28.10;;;12.23;;
82292;SDS011;71892;14.836;105.234;2023-09-19T13:06:46;20.38;;;12.10;;
82292;SDS011;71892;14.836;105.234;2023-09-19T13:09:14;23.98;;;11.75;;
82292;SDS011;71892;14.836;105.234;2023-09-19T13:11:42;20.65;;;11.23;;
82292;SDS011;71892;14.836;105.234;2023-09-19T13:16:56;21.02;;;11.05;;
82292;SDS011;71892;14.836;105.234;2023-09-19T13:19:45;17.52;;;10.10;;
82292;SDS011;71892;14.836;105.234;2023-09-19T13:22:39;21.00;;;10.85;;
82292;SDS011;71892;14.836;105.234;2023-09-19T13:25:17;18.33;;;10.05;;
82292;SDS011;71892;14.836;105.234;2023-09-19T13:27:48;13.70;;;8.88;;
82292;SDS011;71892;14.836;105.234;2023-09-19T13:30:20;15.93;;;9.20;;
82292;SDS011;71892;14.836;105.234;2023-09-19T13:32:48;19.17;;;9.57;;
82292;SDS011;71892;14.836;105.234;2023-09-19T13:35:15;15.73;;;9.93;;
82292;SDS011;71892;14.836;105.234;2023-09-19T13:37:42;17.83;;;9.18;;
82292;SDS011;71892;14.836;105.234;2023-09-19T13:40:12;14.05;;;8.57;;
82292;SDS011;71892;14.836;105.234;2023-09-19T13:42:40;13.20;;;8.32;;
82292;SDS011;71892;14.836;105.234;2023-09-19T13:45:08;16.85;;;8.40;;
82292;SDS011;71892;14.836;105.234;2023-09-19T13:47:39;15.70;;;8.07;;
82292;SDS011;71892;14.836;105.234;2023-09-19T13:50:05;13.90;;;8.20;;
82292;SDS011;71892;14.836;105.234;2023-09-19T13:52:33;15.65;;;8.40;;
82292;SDS011;71892;14.836;105.234;2023-09-19T13:54:59;13.70;;;8.57;;
82292;SDS011;71892;14.836;105.234;2023-09-19T13:57:26;13.32;;;8.27;;
82292;SDS011;71892;14.836;105.234;2023-09-19T13:59:52;16.67;;;8.38;;
82292;SDS011;71892;14.836;105.234;2023-09-19T14:02:20;13.23;;;8.50;;
82292;SDS011;71892;14.836;105.234;2023-09-19T14:04:50;15.07;;;7.95;;
82292;SDS011;71892;14.836;105.234;2023-09-19T14:07:17;14.88;;;8.45;;
82292;SDS011;71892;14.836;105.234;2023-09-19T14:09:45;16.88;;;9.05;;
82292;SDS011;71892;14.836;105.234;2023-09-19T14:12:12;16.05;;;8.60;;
82292;SDS011;71892;14.836;105.234;2023-09-19T14:14:40;15.27;;;6.93;;
82292;SDS011;71892;14.836;105.234;2023-09-19T14:17:07;13.05;;;6.88;;
82292;SDS011;71892;14.836;105.234;2023-09-19T14:19:34;13.85;;;6.78;;
82292;SDS011;71892;14.836;105.234;2023-09-19T14:22:02;13.43;;;8.55;;
82292;SDS011;71892;14.836;105.234;2023-09-19T14:24:33;16.25;;;8.60;;
82292;SDS011;71892;14.836;105.234;2023-09-19T14:27:00;14.77;;;7.35;;
82292;SDS011;71892;14.836;105.234;2023-09-19T14:29:26;16.98;;;10.10;;
82292;SDS011;71892;14.836;105.234;2023-09-19T14:31:52;15.38;;;8.15;;
82292;SDS011;71892;14.836;105.234;2023-09-19T14:34:22;13.38;;;8.32;;
82292;SDS011;71892;14.836;105.234;2023-09-19T14:36:48;15.23;;;8.93;;
82292;SDS011;71892;14.836;105.234;2023-09-19T14:39:15;18.35;;;10.85;;
82292;SDS011;71892;14.836;105.234;2023-09-19T14:41:41;18.52;;;10.50;;
82292;SDS011;71892;14.836;105.234;2023-09-19T14:44:07;17.52;;;9.55;;
82292;SDS011;71892;14.836;105.234;2023-09-19T14:46:35;13.23;;;8.45;;
82292;SDS011;71892;14.836;105.234;2023-09-19T14:49:02;12.70;;;7.07;;
82292;SDS011;71892;14.836;105.234;2023-09-19T14:51:30;11.05;;;6.90;;
82292;SDS011;71892;14.836;105.234;2023-09-19T14:53:56;13.27;;;8.10;;
82292;SDS011;71892;14.836;105.234;2023-09-19T14:56:23;13.00;;;7.63;;
82292;SDS011;71892;14.836;105.234;2023-09-19T14:58:50;13.38;;;8.05;;
82292;SDS011;71892;14.836;105.234;2023-09-19T15:01:17;16.40;;;7.95;;
82292;SDS011;71892;14.836;105.234;2023-09-19T15:03:43;11.65;;;7.72;;
82292;SDS011;71892;14.836;105.234;2023-09-19T15:06:11;12.35;;;7.88;;
82292;SDS011;71892;14.836;105.234;2023-09-19T15:08:45;11.85;;;7.80;;
82292;SDS011;71892;14.836;105.234;2023-09-19T15:11:19;15.52;;;7.47;;
82292;SDS011;71892;14.836;105.234;2023-09-19T15:13:46;11.50;;;6.85;;
82292;SDS011;71892;14.836;105.234;2023-09-19T15:16:14;12.73;;;7.47;;
82292;SDS011;71892;14.836;105.234;2023-09-19T15:18:41;12.90;;;7.55;;
82292;SDS011;71892;14.836;105.234;2023-09-19T15:21:11;11.80;;;7.65;;
82292;SDS011;71892;14.836;105.234;2023-09-19T15:23:39;13.23;;;7.53;;
82292;SDS011;71892;14.836;105.234;2023-09-19T15:26:07;14.80;;;8.80;;
82292;SDS011;71892;14.836;105.234;2023-09-19T15:28:37;14.35;;;9.43;;
82292;SDS011;71892;14.836;105.234;2023-09-19T15:31:04;14.93;;;9.48;;
82292;SDS011;71892;14.836;105.234;2023-09-19T15:33:33;13.75;;;9.95;;
82292;SDS011;71892;14.836;105.234;2023-09-19T15:36:06;14.55;;;9.20;;
82292;SDS011;71892;14.836;105.234;2023-09-19T15:41:34;16.80;;;8.80;;
82292;SDS011;71892;14.836;105.234;2023-09-19T15:44:10;13.65;;;9.23;;
82292;SDS011;71892;14.836;105.234;2023-09-19T15:46:41;12.27;;;7.55;;
82292;SDS011;71892;14.836;105.234;2023-09-19T15:49:09;13.68;;;8.77;;
82292;SDS011;71892;14.836;105.234;2023-09-19T15:51:35;18.65;;;10.30;;
82292;SDS011;71892;14.836;105.234;2023-09-19T15:54:02;11.10;;;7.88;;
82292;SDS011;71892;14.836;105.234;2023-09-19T15:56:32;12.68;;;7.68;;
82292;SDS011;71892;14.836;105.234;2023-09-19T15:59:02;14.73;;;7.00;;
82292;SDS011;71892;14.836;105.234;2023-09-19T16:01:29;14.27;;;8.40;;